createdAt,value
2023-05-09T00:01:14.934Z,4.61
2023-05-09T00:03:43.149Z,4.60
2023-05-09T00:06:11.626Z,4.53
2023-05-09T00:08:38.173Z,4.49
2023-05-09T00:11:04.992Z,4.42
2023-05-09T00:13:31.491Z,4.42
2023-05-09T00:15:58.502Z,4.45
2023-05-09T00:18:25.092Z,4.51
2023-05-09T00:20:51.646Z,4.57
2023-05-09T00:23:18.354Z,4.59
2023-05-09T00:25:45.102Z,4.57
2023-05-09T00:28:11.717Z,4.50
2023-05-09T00:30:38.271Z,4.49
2023-05-09T00:33:04.881Z,4.49
2023-05-09T00:35:32.356Z,4.49
2023-05-09T00:37:59.508Z,4.50
2023-05-09T00:40:26.126Z,4.53
2023-05-09T00:42:52.766Z,4.56
2023-05-09T00:45:19.405Z,4.57
2023-05-09T00:47:46.192Z,4.62
2023-05-09T00:50:13.775Z,4.64
2023-05-09T00:52:40.360Z,4.62
2023-05-09T00:55:08.383Z,4.57
2023-05-09T00:57:35.131Z,4.52
2023-05-09T01:00:01.841Z,4.48
2023-05-09T01:02:29.194Z,4.48
2023-05-09T01:04:56.318Z,4.43
2023-05-09T01:07:31.403Z,4.42
2023-05-09T01:10:35.447Z,4.40
2023-05-09T01:13:24.620Z,4.32
2023-05-09T01:15:56.369Z,4.28
2023-05-09T01:18:33.012Z,4.23
2023-05-09T01:21:08.808Z,4.25
2023-05-09T01:23:44.974Z,4.29
2023-05-09T01:26:19.340Z,4.35
2023-05-09T01:29:23.560Z,4.42
2023-05-09T01:31:50.223Z,4.46
2023-05-09T01:34:17.576Z,4.48
2023-05-09T01:36:44.171Z,4.44
2023-05-09T01:39:12.323Z,4.44
2023-05-09T01:41:38.920Z,4.35
2023-05-09T01:44:10.479Z,4.31
2023-05-09T01:46:37.904Z,4.32
2023-05-09T01:49:05.777Z,4.35
2023-05-09T01:51:32.746Z,4.33
2023-05-09T01:53:59.331Z,4.31
2023-05-09T01:56:27.368Z,4.28
2023-05-09T01:58:56.511Z,4.25
2023-05-09T02:01:26.339Z,4.24
2023-05-09T02:03:55.504Z,4.27
2023-05-09T02:06:25.071Z,4.31
2023-05-09T02:08:54.215Z,4.34
2023-05-09T02:11:23.244Z,4.35
2023-05-09T02:13:52.926Z,4.35
2023-05-09T02:16:23.255Z,4.34
2023-05-09T02:18:52.750Z,4.32
2023-05-09T02:21:22.064Z,4.32
2023-05-09T02:23:51.119Z,4.32
2023-05-09T02:26:20.867Z,4.27
2023-05-09T02:28:48.477Z,4.21
2023-05-09T02:31:18.107Z,4.15
2023-05-09T02:33:47.998Z,4.12
2023-05-09T02:36:17.266Z,4.08
2023-05-09T02:38:47.328Z,4.15
2023-05-09T02:41:15.911Z,4.21
2023-05-09T02:43:44.387Z,4.23
2023-05-09T02:46:12.570Z,4.23
2023-05-09T02:48:41.585Z,4.21
2023-05-09T02:51:10.222Z,4.20
2023-05-09T02:53:40.208Z,4.18
2023-05-09T03:03:28.964Z,4.27
2023-05-09T03:05:56.300Z,4.26
2023-05-09T03:08:22.924Z,4.26
2023-05-09T03:10:49.504Z,4.23
2023-05-09T03:13:16.448Z,4.23
2023-05-09T03:15:43.138Z,4.27
2023-05-09T03:18:12.541Z,4.28
2023-05-09T03:20:39.878Z,4.29
2023-05-09T03:23:06.480Z,4.27
2023-05-09T03:25:33.055Z,4.25
2023-05-09T03:27:59.556Z,4.18
2023-05-09T03:30:27.269Z,4.18
2023-05-09T03:32:54.493Z,4.28
2023-05-09T03:35:21.160Z,4.29
2023-05-09T03:37:47.717Z,4.30
2023-05-09T03:40:14.271Z,4.35
2023-05-09T03:42:48.978Z,4.35
2023-05-09T03:45:15.829Z,4.32
2023-05-09T03:47:43.394Z,4.23
2023-05-09T03:50:11.326Z,4.21
2023-05-09T03:52:38.726Z,4.19
2023-05-09T03:55:06.404Z,4.26
2023-05-09T03:57:34.933Z,4.24
2023-05-09T04:00:02.313Z,4.14
2023-05-09T04:02:29.029Z,4.08
2023-05-09T04:04:55.920Z,4.03
2023-05-09T04:07:22.940Z,4.06
2023-05-09T04:09:50.445Z,4.07
2023-05-09T04:12:17.152Z,4.07
2023-05-09T04:14:46.170Z,4.05
2023-05-09T04:17:14.876Z,4.03
2023-05-09T04:19:41.678Z,4.01
2023-05-09T04:22:08.153Z,3.96
2023-05-09T04:24:34.678Z,4.01
2023-05-09T04:27:02.115Z,4.10
2023-05-09T04:29:28.834Z,4.18
2023-05-09T04:31:56.250Z,4.21
2023-05-09T04:34:26.353Z,4.26
2023-05-09T04:36:54.120Z,4.30
2023-05-09T04:39:20.794Z,4.33
2023-05-09T04:41:54.293Z,4.35
2023-05-09T04:44:21.717Z,4.37
2023-05-09T04:46:48.787Z,4.41
2023-05-09T04:49:15.715Z,4.41
2023-05-09T04:51:42.190Z,4.43
2023-05-09T04:54:08.724Z,4.49
2023-05-09T04:56:36.389Z,4.51
2023-05-09T04:59:03.624Z,4.54
2023-05-09T05:01:30.968Z,4.56
2023-05-09T05:03:58.086Z,4.63
2023-05-09T05:06:24.641Z,4.71
2023-05-09T05:08:51.135Z,4.79
2023-05-09T05:11:21.888Z,4.87
2023-05-09T05:13:48.553Z,4.95
2023-05-09T05:16:15.420Z,4.98
2023-05-09T05:18:42.271Z,4.99
2023-05-09T05:21:09.019Z,5.05
2023-05-09T05:23:36.028Z,5.11
2023-05-09T05:26:02.582Z,5.17
2023-05-09T05:28:29.905Z,5.26
2023-05-09T05:30:56.404Z,5.35
2023-05-09T05:33:22.995Z,5.44
2023-05-09T05:35:49.814Z,5.51
2023-05-09T05:38:16.295Z,5.56
2023-05-09T05:40:43.293Z,5.60
2023-05-09T05:43:10.424Z,5.64
2023-05-09T05:45:37.749Z,5.65
2023-05-09T05:48:05.342Z,5.76
2023-05-09T05:50:32.120Z,5.81
2023-05-09T05:52:59.303Z,5.90
2023-05-09T05:55:26.003Z,5.97
2023-05-09T05:57:52.597Z,6.00
2023-05-09T06:00:20.601Z,6.02
2023-05-09T06:02:50.135Z,6.07
2023-05-09T06:05:24.328Z,6.09
2023-05-09T06:07:51.360Z,6.16
2023-05-09T06:10:17.865Z,6.27
2023-05-09T06:12:45.078Z,6.30
2023-05-09T06:15:12.098Z,6.30
2023-05-09T06:17:40.881Z,6.47
2023-05-09T06:20:07.792Z,6.64
2023-05-09T06:22:34.361Z,6.77
2023-05-09T06:25:00.993Z,6.83
2023-05-09T06:27:27.567Z,6.80
2023-05-09T06:29:54.085Z,6.75
2023-05-09T06:32:21.229Z,6.72
2023-05-09T06:34:48.259Z,6.82
2023-05-09T06:37:14.691Z,6.97
2023-05-09T06:39:41.197Z,7.03
2023-05-09T06:42:07.775Z,6.95
2023-05-09T06:44:37.264Z,6.86
2023-05-09T06:47:03.787Z,6.92
2023-05-09T06:49:30.452Z,7.13
2023-05-09T06:51:56.905Z,7.37
2023-05-09T06:54:23.376Z,7.44
2023-05-09T06:56:49.868Z,7.46
2023-05-09T06:59:16.623Z,7.63
2023-05-09T07:01:43.150Z,7.74
2023-05-09T07:04:09.665Z,7.79
2023-05-09T07:06:36.256Z,7.78
2023-05-09T07:09:04.239Z,7.84
2023-05-09T07:11:36.969Z,8.00
2023-05-09T07:14:04.053Z,8.10
2023-05-09T07:16:30.689Z,8.07
2023-05-09T07:18:57.261Z,8.12
2023-05-09T07:21:23.740Z,8.17
2023-05-09T07:23:50.325Z,8.17
2023-05-09T07:26:16.790Z,8.30
2023-05-09T07:28:43.276Z,8.40
2023-05-09T07:31:09.747Z,8.47
2023-05-09T07:33:36.304Z,8.37
2023-05-09T07:36:02.950Z,8.30
2023-05-09T07:38:29.488Z,8.19
2023-05-09T07:40:56.008Z,8.14
2023-05-09T07:43:22.586Z,8.18
2023-05-09T07:45:49.290Z,8.30
2023-05-09T07:48:15.858Z,8.30
2023-05-09T07:50:42.299Z,8.11
2023-05-09T07:53:08.720Z,8.10
2023-05-09T07:55:35.182Z,8.15
2023-05-09T07:58:01.679Z,8.25
2023-05-09T08:00:28.158Z,8.48
2023-05-09T08:02:55.121Z,8.73
2023-05-09T08:05:21.706Z,8.94
2023-05-09T08:07:48.301Z,9.12
2023-05-09T08:10:14.859Z,9.25
2023-05-09T08:12:41.360Z,9.30
2023-05-09T08:15:09.016Z,9.20
2023-05-09T08:17:35.592Z,9.22
2023-05-09T08:20:02.226Z,9.29
2023-05-09T08:22:28.704Z,9.37
2023-05-09T08:24:55.232Z,9.44
2023-05-09T08:27:21.830Z,9.50
2023-05-09T08:29:48.252Z,9.57
2023-05-09T08:32:14.844Z,9.86
2023-05-09T08:34:41.433Z,10.06
2023-05-09T08:37:08.003Z,10.26
2023-05-09T08:39:35.273Z,10.64
2023-05-09T08:42:02.416Z,10.99
2023-05-09T08:44:30.009Z,11.20
2023-05-09T08:46:58.850Z,11.35
2023-05-09T08:49:25.753Z,11.62
2023-05-09T08:51:52.299Z,11.93
2023-05-09T08:54:20.636Z,12.37
2023-05-09T08:56:49.054Z,12.76
2023-05-09T08:59:15.665Z,13.04
2023-05-09T09:01:42.291Z,12.96
2023-05-09T09:04:09.017Z,12.87
2023-05-09T09:06:35.715Z,13.05
2023-05-09T09:09:02.381Z,13.14
2023-05-09T09:11:28.887Z,13.33
2023-05-09T09:13:55.440Z,13.21
2023-05-09T09:16:22.678Z,13.23
2023-05-09T09:18:50.954Z,13.36
2023-05-09T09:21:17.573Z,13.69
2023-05-09T09:23:44.400Z,13.91
2023-05-09T09:26:10.930Z,13.98
2023-05-09T09:28:37.547Z,14.14
2023-05-09T09:31:28.530Z,14.40
2023-05-09T09:34:01.908Z,14.69
2023-05-09T09:36:32.561Z,14.81
2023-05-09T09:39:00.657Z,15.04
2023-05-09T09:41:34.332Z,15.03
2023-05-09T09:44:13.753Z,15.33
2023-05-09T09:46:44.904Z,15.54
2023-05-09T09:49:12.554Z,15.64
2023-05-09T09:51:40.117Z,15.50
2023-05-09T09:54:07.974Z,15.40
2023-05-09T09:56:41.942Z,15.17
2023-05-09T09:59:15.522Z,14.93
2023-05-09T10:02:08.663Z,14.78
2023-05-09T10:04:36.863Z,14.56
2023-05-09T10:07:05.227Z,14.40
2023-05-09T10:09:32.948Z,14.42
2023-05-09T10:12:06.798Z,14.66
2023-05-09T10:14:35.634Z,14.69
2023-05-09T10:17:04.468Z,14.51
2023-05-09T10:19:31.892Z,14.37
2023-05-09T10:22:01.991Z,14.64
2023-05-09T10:24:34.513Z,14.85
2023-05-09T10:27:06.157Z,14.83
2023-05-09T10:29:35.309Z,14.49
2023-05-09T10:32:06.679Z,14.20
2023-05-09T10:34:33.344Z,14.01
2023-05-09T10:37:00.883Z,13.80
2023-05-09T10:39:27.797Z,13.59
2023-05-09T10:41:54.358Z,13.28
2023-05-09T10:44:23.108Z,12.94
2023-05-09T10:46:49.721Z,12.65
2023-05-09T10:49:16.380Z,12.52
2023-05-09T10:51:42.944Z,12.34
2023-05-09T10:54:16.483Z,12.16
2023-05-09T10:56:45.252Z,11.93
2023-05-09T10:59:40.012Z,11.75
2023-05-09T11:02:19.485Z,11.44
2023-05-09T11:04:48.652Z,11.21
2023-05-09T11:07:30.333Z,11.29
2023-05-09T11:10:15.402Z,11.44
2023-05-09T11:12:58.573Z,11.51
2023-05-09T11:15:30.280Z,11.52
2023-05-09T11:18:08.551Z,11.54
2023-05-09T11:20:37.748Z,11.50
2023-05-09T11:23:06.887Z,11.43
2023-05-09T11:25:36.127Z,11.31
2023-05-09T11:28:07.378Z,11.11
2023-05-09T11:30:45.689Z,10.86
2023-05-09T11:33:25.253Z,10.66
2023-05-09T11:36:25.489Z,10.59
2023-05-09T11:39:06.472Z,10.62
2023-05-09T11:41:54.202Z,10.77
2023-05-09T11:44:23.814Z,11.08
2023-05-09T11:46:52.380Z,11.21
2023-05-09T11:49:21.824Z,11.31
2023-05-09T11:51:50.337Z,11.42
2023-05-09T11:54:19.275Z,11.82
2023-05-09T12:04:01.785Z,11.78
2023-05-09T12:06:30.074Z,11.66
2023-05-09T12:08:57.768Z,11.88
2023-05-09T12:11:24.257Z,12.19
2023-05-09T12:13:52.358Z,12.41
2023-05-09T12:16:19.439Z,12.51
2023-05-09T12:18:50.579Z,12.70
2023-05-09T12:21:17.720Z,12.62
2023-05-09T12:23:44.703Z,12.73
2023-05-09T12:26:11.250Z,12.91
2023-05-09T12:28:37.806Z,13.08
2023-05-09T12:31:04.592Z,13.18
2023-05-09T12:33:31.936Z,13.36
2023-05-09T12:36:10.394Z,13.54
2023-05-09T12:38:37.364Z,13.67
2023-05-09T12:41:05.444Z,13.85
2023-05-09T12:43:33.307Z,13.98
2023-05-09T12:46:00.730Z,14.09
2023-05-09T12:48:27.581Z,14.14
2023-05-09T12:50:54.148Z,14.09
2023-05-09T12:53:27.930Z,13.93
2023-05-09T12:55:56.648Z,13.74
2023-05-09T12:58:23.227Z,13.69
2023-05-09T13:00:49.804Z,13.71
2023-05-09T13:03:25.420Z,13.70
2023-05-09T13:05:59.464Z,13.61
2023-05-09T13:08:26.126Z,13.46
2023-05-09T13:11:00.757Z,13.42
2023-05-09T13:13:31.060Z,13.57
2023-05-09T13:15:57.624Z,13.75
2023-05-09T13:18:24.621Z,13.79
2023-05-09T13:20:51.568Z,13.73
2023-05-09T13:26:37.236Z,13.35
2023-05-09T13:29:03.973Z,13.37
2023-05-09T13:31:31.341Z,13.26
2023-05-09T13:33:57.818Z,13.02
2023-05-09T13:36:24.470Z,12.74
2023-05-09T13:38:51.032Z,12.64
2023-05-09T13:41:21.743Z,12.90
2023-05-09T13:43:48.335Z,13.11
2023-05-09T13:46:14.931Z,13.18
2023-05-09T13:56:03.019Z,12.74
2023-05-09T13:58:29.671Z,12.55
2023-05-09T14:00:56.333Z,12.45
2023-05-09T14:03:22.875Z,12.28
2023-05-09T14:05:49.518Z,12.15
2023-05-09T14:08:16.927Z,12.04
2023-05-09T14:10:44.670Z,11.91
2023-05-09T14:13:12.599Z,11.76
2023-05-09T14:15:40.385Z,11.64
2023-05-09T14:18:07.159Z,11.57
2023-05-09T14:20:37.103Z,11.56
2023-05-09T14:23:03.702Z,11.41
2023-05-09T14:25:30.286Z,11.25
2023-05-09T14:27:56.933Z,11.17
2023-05-09T14:30:25.832Z,11.09
2023-05-09T14:32:52.739Z,11.03
2023-05-09T14:35:19.374Z,10.97
2023-05-09T14:37:45.914Z,11.00
2023-05-09T14:40:13.460Z,11.24
2023-05-09T14:42:40.234Z,11.54
2023-05-09T14:45:10.622Z,11.73
2023-05-09T14:47:37.346Z,11.73
2023-05-09T14:50:04.500Z,11.70
2023-05-09T14:52:31.059Z,11.63
2023-05-09T14:54:59.883Z,11.64
2023-05-09T14:57:26.775Z,11.58
2023-05-09T14:59:53.399Z,11.62
2023-05-09T15:02:20.078Z,11.75
2023-05-09T15:04:46.675Z,11.72
2023-05-09T15:07:13.392Z,11.63
2023-05-09T15:09:39.971Z,11.58
2023-05-09T15:12:06.675Z,11.56
2023-05-09T15:14:33.282Z,11.42
2023-05-09T15:17:03.323Z,11.26
2023-05-09T15:19:31.902Z,11.15
2023-05-09T15:22:00.006Z,11.04
2023-05-09T15:24:27.019Z,10.92
2023-05-09T15:26:54.496Z,10.86
2023-05-09T15:29:21.939Z,10.81
2023-05-09T15:31:49.005Z,10.76
2023-05-09T15:34:15.719Z,10.75
2023-05-09T15:36:42.223Z,10.75
2023-05-09T15:39:08.818Z,10.81
2023-05-09T15:41:35.527Z,10.94
2023-05-09T15:44:02.099Z,10.99
2023-05-09T15:46:28.757Z,11.00
2023-05-09T15:48:56.943Z,10.92
2023-05-09T15:51:23.485Z,10.79
2023-05-09T15:53:50.270Z,10.70
2023-05-09T15:56:16.943Z,10.75
2023-05-09T15:58:43.645Z,10.80
2023-05-09T16:01:13.210Z,10.78
2023-05-09T16:03:41.162Z,10.82
2023-05-09T16:06:07.822Z,10.85
2023-05-09T16:08:34.326Z,10.85
2023-05-09T16:11:01.992Z,10.84
2023-05-09T16:13:29.891Z,10.82
2023-05-09T16:15:56.924Z,10.71
2023-05-09T16:18:23.566Z,10.56
2023-05-09T16:20:50.461Z,10.48
2023-05-09T16:23:17.034Z,10.44
2023-05-09T16:25:45.034Z,10.33
2023-05-09T16:28:11.611Z,10.23
2023-05-09T16:30:38.057Z,10.20
2023-05-09T16:33:04.831Z,10.22
2023-05-09T16:35:31.458Z,10.24
2023-05-09T16:37:58.059Z,10.12
2023-05-09T16:40:24.676Z,9.97
2023-05-09T16:42:51.137Z,9.87
2023-05-09T16:45:17.637Z,9.77
2023-05-09T16:47:44.320Z,9.67
2023-05-09T16:50:11.070Z,9.60
2023-05-09T16:52:37.630Z,9.56
2023-05-09T16:55:04.944Z,9.49
2023-05-09T16:57:31.744Z,9.44
2023-05-09T16:59:58.572Z,9.39
2023-05-09T17:02:25.170Z,9.34
2023-05-09T17:04:51.960Z,9.30
2023-05-09T17:07:19.144Z,9.31
2023-05-09T17:09:45.685Z,9.27
2023-05-09T17:12:17.581Z,9.19
2023-05-09T17:14:45.520Z,9.16
2023-05-09T17:17:13.189Z,9.11
2023-05-09T17:19:39.731Z,9.04
2023-05-09T17:22:07.956Z,8.98
2023-05-09T17:24:35.162Z,8.93
2023-05-09T17:27:01.895Z,8.91
2023-05-09T17:29:32.057Z,8.90
2023-05-09T17:32:02.140Z,8.80
2023-05-09T17:34:29.014Z,8.80
2023-05-09T17:36:56.346Z,8.77
2023-05-09T17:39:23.269Z,8.74
2023-05-09T17:41:49.744Z,8.73
2023-05-09T17:44:16.852Z,8.71
2023-05-09T17:54:20.040Z,8.49
2023-05-09T17:56:50.447Z,8.39
2023-05-09T17:59:17.460Z,8.36
2023-05-09T18:01:43.229Z,8.34
2023-05-09T18:04:09.110Z,8.31
2023-05-09T18:06:36.573Z,8.27
2023-05-09T18:09:02.586Z,8.19
2023-05-09T18:11:28.729Z,8.15
2023-05-09T18:13:55.185Z,8.07
2023-05-09T18:16:21.211Z,8.02
2023-05-09T18:18:47.132Z,7.97
2023-05-09T18:21:13.315Z,7.89
2023-05-09T18:23:40.141Z,7.81
2023-05-09T18:26:06.080Z,7.75
2023-05-09T18:28:38.472Z,7.75
2023-05-09T18:31:05.761Z,7.69
2023-05-09T18:33:36.238Z,7.64
2023-05-09T18:36:02.452Z,7.61
2023-05-09T18:38:28.500Z,7.57
2023-05-09T18:40:54.411Z,7.51
2023-05-09T18:43:21.053Z,7.44
2023-05-09T18:45:47.581Z,7.41
2023-05-09T18:48:15.803Z,7.37
2023-05-09T18:50:42.094Z,7.36
2023-05-09T18:53:08.367Z,7.33
2023-05-09T18:55:34.348Z,7.34
2023-05-09T18:58:00.158Z,7.39
2023-05-09T19:00:25.967Z,7.38
2023-05-09T19:02:51.768Z,7.38
2023-05-09T19:05:17.930Z,7.28
2023-05-09T19:07:43.693Z,7.32
2023-05-09T19:10:10.501Z,7.28
2023-05-09T19:12:36.776Z,7.22
2023-05-09T19:15:03.229Z,7.15
2023-05-09T19:17:29.299Z,7.07
2023-05-09T19:19:55.116Z,7.02
2023-05-09T19:22:20.906Z,6.92
2023-05-09T19:24:46.697Z,6.88
2023-05-09T19:27:12.822Z,6.84
2023-05-09T19:29:38.782Z,6.76
2023-05-09T19:32:06.481Z,6.70
2023-05-09T19:34:32.628Z,6.70
2023-05-09T19:36:58.397Z,6.71
2023-05-09T19:39:24.251Z,6.74
2023-05-09T19:41:50.038Z,6.77
2023-05-09T19:44:15.988Z,6.73
2023-05-09T19:46:42.491Z,6.79
2023-05-09T19:49:09.647Z,6.71
2023-05-09T19:51:35.508Z,6.81
2023-05-09T19:54:01.404Z,6.79
2023-05-09T19:56:27.155Z,6.82
2023-05-09T19:58:53.049Z,6.86
2023-05-09T20:01:19.290Z,6.87
2023-05-09T20:03:46.325Z,6.86
2023-05-09T20:06:12.977Z,6.81
2023-05-09T20:08:38.837Z,6.79
2023-05-09T20:11:04.947Z,6.74
2023-05-09T20:13:30.746Z,6.69
2023-05-09T20:15:58.395Z,6.63
2023-05-09T20:18:24.433Z,6.58
2023-05-09T20:20:50.494Z,6.49
2023-05-09T20:23:16.285Z,6.45
2023-05-09T20:25:42.062Z,6.47
2023-05-09T20:28:11.007Z,6.50
2023-05-09T20:30:37.092Z,6.49
2023-05-09T20:33:02.997Z,6.63
2023-05-09T20:35:28.794Z,6.65
2023-05-09T20:37:54.607Z,6.61
2023-05-09T20:40:20.483Z,6.62
2023-05-09T20:42:46.527Z,6.68
2023-05-09T20:45:12.413Z,6.67
2023-05-09T20:47:39.337Z,6.62
2023-05-09T20:50:06.481Z,6.59
2023-05-09T20:52:32.243Z,6.58
2023-05-09T20:54:58.661Z,6.58
2023-05-09T20:57:24.669Z,6.60
2023-05-09T20:59:50.540Z,6.59
2023-05-09T21:02:16.348Z,6.54
2023-05-09T21:04:42.196Z,6.50
2023-05-09T21:07:09.301Z,6.46
2023-05-09T21:09:35.321Z,6.52
2023-05-09T21:12:03.175Z,6.60
2023-05-09T21:14:29.280Z,6.66
2023-05-09T21:16:57.374Z,6.65
2023-05-09T21:19:24.147Z,6.73
2023-05-09T21:21:49.919Z,6.70
2023-05-09T21:24:15.647Z,6.66
2023-05-09T21:26:41.458Z,6.60
2023-05-09T21:29:07.323Z,6.60
2023-05-09T21:31:33.684Z,6.59
2023-05-09T21:34:00.193Z,6.63
2023-05-09T21:36:26.048Z,6.61
2023-05-09T21:38:51.862Z,6.60
2023-05-09T21:41:17.712Z,6.55
2023-05-09T21:43:43.569Z,6.51
2023-05-09T21:46:09.468Z,6.53
2023-05-09T21:48:35.262Z,6.54
2023-05-09T21:51:02.191Z,6.50
2023-05-09T21:53:28.095Z,6.61
2023-05-09T21:55:53.865Z,6.68
2023-05-09T21:58:19.694Z,6.71
2023-05-09T22:00:45.784Z,6.76
2023-05-09T22:03:11.745Z,6.81
2023-05-09T22:05:37.691Z,6.84
2023-05-09T22:08:03.888Z,6.83
2023-05-09T22:10:29.942Z,6.79
2023-05-09T22:20:16.578Z,6.83
2023-05-09T22:22:43.319Z,6.79
2023-05-09T22:25:09.987Z,6.75
2023-05-09T22:27:36.468Z,6.70
2023-05-09T22:30:03.171Z,6.73
2023-05-09T22:32:29.681Z,6.73
2023-05-09T22:34:56.660Z,6.72
2023-05-09T22:37:23.285Z,6.71
2023-05-09T22:39:49.754Z,6.71
2023-05-09T22:42:16.353Z,6.71
2023-05-09T22:44:43.174Z,6.71
2023-05-09T22:47:09.784Z,6.71
2023-05-09T22:49:36.444Z,6.64
2023-05-09T22:52:03.168Z,6.58
2023-05-09T22:54:29.697Z,6.51
2023-05-09T22:56:56.221Z,6.47
2023-05-09T22:59:23.094Z,6.47
2023-05-09T23:01:49.697Z,6.43
2023-05-09T23:04:16.415Z,6.38
2023-05-09T23:06:42.984Z,6.35
2023-05-09T23:09:10.625Z,6.34
2023-05-09T23:11:37.572Z,6.27
2023-05-09T23:14:04.010Z,6.27
2023-05-09T23:16:30.517Z,6.34
2023-05-09T23:18:56.987Z,6.41
2023-05-09T23:21:23.390Z,6.48
2023-05-09T23:23:49.894Z,6.51
2023-05-09T23:26:16.411Z,6.51
2023-05-09T23:28:43.028Z,6.49
2023-05-09T23:31:10.311Z,6.47
2023-05-09T23:33:36.820Z,6.46
2023-05-09T23:36:03.482Z,6.47
2023-05-09T23:38:29.938Z,6.49
2023-05-09T23:40:58.346Z,6.44
2023-05-09T23:43:25.152Z,6.38
2023-05-09T23:45:51.732Z,6.31
2023-05-09T23:48:18.271Z,6.32
2023-05-09T23:50:44.812Z,6.34
2023-05-09T23:53:11.977Z,6.32
2023-05-09T23:55:38.493Z,6.31
2023-05-09T23:58:04.981Z,6.23
